Kotohira Maru No.8 — JL6457 — position and weather

sailwx.info

Track history (hours):
 
Tides and Currents Weather Stations Pressure Air Temp Water Temp Dewpoint Dewpoint Depression Visibility Wind Speed Wind Dir Waves Ship Positions

Kotohira Maru No.8

Last reported at 2018-May-28 07:00 UTC. Time now 2018-Jun-19 06:33 UTC.
Position N 34°24' E 134°16'.
Warning: this ship's position is 21 days out of date.

Length 73 m; draft 3.2 m.

Type: Cargo ship. MMSI: 431500458.

Date/timePositionNaut miles runAvg speedWind from/ knotsBaromVisibWave heightAir tempDewpointWater temp
2018-May-28 07:00N 34°24' E 134°16'611.2
2018-May-28 06:29N 34°21' E 134°23'511.4
2018-May-28 06:00N 34°19' E 134°29'1010.7
2018-May-28 05:03N 34°14' E 134°39'111.9
2018-May-28 04:59N 34°13' E 134°40'10 8.8
2018-May-28 03:50N 34°05' E 134°47'2 2.5
2018-May-28 03:09N 34°04' E 134°49'4 9.2
2018-May-28 02:46N 34°02' E 134°52'3 9.8
2018-May-28 02:29N 33°60' E 134°54'510.5
2018-May-28 02:00N 33°56' E 134°58'611.2
2018-May-28 01:30N 33°52' E 135°03'  
2018-May-22 23:51N 34°52' E 139°52'411.5
2018-May-22 23:29N 34°51' E 139°47'610.1
2018-May-22 22:55N 34°51' E 139°40'4 9.6
2018-May-22 22:28N 34°51' E 139°35'229 8.4
2018-May-21 19:15N 33°46' E 135°09'310.2
2018-May-21 18:59N 33°48' E 135°07'5 9.8
2018-May-21 18:29N 33°52' E 135°03'4 9.3
2018-May-21 18:00N 33°56' E 135°01'510.8
2018-May-21 17:30N 34°01' E 135°00'510.4
2018-May-21 17:00N 34°06' E 134°60'510.1
2018-May-21 16:30N 34°11' E 134°59'5 9.5
2018-May-21 16:00N 34°16' E 134°58'4 8.2
2018-May-21 15:30N 34°20' E 134°59'5 9.9
2018-May-21 15:00N 34°25' E 135°00'5 9.9
2018-May-21 14:30N 34°30' E 135°02'5 9.4
2018-May-21 14:00N 34°35' E 135°02'3 6.4
2018-May-21 13:28N 34°37' E 134°59'710.1
2018-May-21 12:49N 34°34' E 134°52'410.5
2018-May-21 12:28N 34°33' E 134°48'510.7
2018-May-21 11:59N 34°31' E 134°42'22 0.9
2018-May-20 10:30N 34°36' E 134°15'1511.5
2018-May-20 09:12N 34°42' E 134°32'311.4
2018-May-20 08:58N 34°42' E 134°36'611.4
2018-May-20 08:30N 34°40' E 134°42'511.1
2018-May-20 08:00N 34°39' E 134°48'5 9.6
2018-May-20 07:29N 34°37' E 134°54'510.2
2018-May-20 07:00N 34°38' E 135°00'5 9.5
2018-May-20 06:30N 34°35' E 135°05'511.0
2018-May-20 06:00N 34°30' E 135°04'611.8
2018-May-20 05:30N 34°24' E 135°02'611.6
2018-May-20 05:00N 34°19' E 135°00'510.7
2018-May-20 04:30N 34°13' E 134°60'611.1
2018-May-20 04:00N 34°08' E 135°01'510.8
2018-May-20 03:30N 34°02' E 135°02'510.6
2018-May-20 03:00N 33°57' E 135°02'610.3
2018-May-20 02:23N 33°51' E 135°04'226 5.7
2018-May-18 10:53N 34°60' E 139°25'3 8.5
2018-May-18 10:29N 35°01' E 139°29'4 8.1
2018-May-18 10:00N 35°03' E 139°33'5 8.8
2018-May-18 09:30N 35°05' E 139°38'5 9.5
2018-May-18 09:00N 35°08' E 139°42'5 9.3
2018-May-18 08:30N 35°12' E 139°46'4 8.7
2018-May-18 08:00N 35°16' E 139°46'5 9.7
2018-May-18 07:31N 35°20' E 139°42'5 9.8
2018-May-18 07:01N 35°25' E 139°43'  
Track history (hours):
 
Tides and Currents Weather Stations Pressure Air Temp Water Temp Dewpoint Dewpoint Depression Visibility Wind Speed Wind Dir Waves Ship Positions

Kotohira Maru No.8

Last reported at 2018-May-28 07:00 UTC. Time now 2018-Jun-19 06:33 UTC.
Position N 34°24' E 134°16'.
Warning: this ship's position is 21 days out of date.

Length 73 m; draft 3.2 m.

Type: Cargo ship. MMSI: 431500458.

Date/timePositionNaut miles runAvg speedWind from/ knotsBaromVisibWave heightAir tempDewpointWater temp
2018-May-28 07:00N 34°24' E 134°16'611.2
2018-May-28 06:29N 34°21' E 134°23'511.4
2018-May-28 06:00N 34°19' E 134°29'1010.7
2018-May-28 05:03N 34°14' E 134°39'111.9
2018-May-28 04:59N 34°13' E 134°40'10 8.8
2018-May-28 03:50N 34°05' E 134°47'2 2.5
2018-May-28 03:09N 34°04' E 134°49'4 9.2
2018-May-28 02:46N 34°02' E 134°52'3 9.8
2018-May-28 02:29N 33°60' E 134°54'510.5
2018-May-28 02:00N 33°56' E 134°58'611.2
2018-May-28 01:30N 33°52' E 135°03'  
2018-May-22 23:51N 34°52' E 139°52'411.5
2018-May-22 23:29N 34°51' E 139°47'610.1
2018-May-22 22:55N 34°51' E 139°40'4 9.6
2018-May-22 22:28N 34°51' E 139°35'229 8.4
2018-May-21 19:15N 33°46' E 135°09'310.2
2018-May-21 18:59N 33°48' E 135°07'5 9.8
2018-May-21 18:29N 33°52' E 135°03'4 9.3
2018-May-21 18:00N 33°56' E 135°01'510.8
2018-May-21 17:30N 34°01' E 135°00'510.4
2018-May-21 17:00N 34°06' E 134°60'510.1
2018-May-21 16:30N 34°11' E 134°59'5 9.5
2018-May-21 16:00N 34°16' E 134°58'4 8.2
2018-May-21 15:30N 34°20' E 134°59'5 9.9
2018-May-21 15:00N 34°25' E 135°00'5 9.9
2018-May-21 14:30N 34°30' E 135°02'5 9.4
2018-May-21 14:00N 34°35' E 135°02'3 6.4
2018-May-21 13:28N 34°37' E 134°59'710.1
2018-May-21 12:49N 34°34' E 134°52'410.5
2018-May-21 12:28N 34°33' E 134°48'510.7
2018-May-21 11:59N 34°31' E 134°42'22 0.9
2018-May-20 10:30N 34°36' E 134°15'1511.5
2018-May-20 09:12N 34°42' E 134°32'311.4
2018-May-20 08:58N 34°42' E 134°36'611.4
2018-May-20 08:30N 34°40' E 134°42'511.1
2018-May-20 08:00N 34°39' E 134°48'5 9.6
2018-May-20 07:29N 34°37' E 134°54'510.2
2018-May-20 07:00N 34°38' E 135°00'5 9.5
2018-May-20 06:30N 34°35' E 135°05'511.0
2018-May-20 06:00N 34°30' E 135°04'611.8
2018-May-20 05:30N 34°24' E 135°02'611.6
2018-May-20 05:00N 34°19' E 135°00'510.7
2018-May-20 04:30N 34°13' E 134°60'611.1
2018-May-20 04:00N 34°08' E 135°01'510.8
2018-May-20 03:30N 34°02' E 135°02'510.6
2018-May-20 03:00N 33°57' E 135°02'610.3
2018-May-20 02:23N 33°51' E 135°04'226 5.7
2018-May-18 10:53N 34°60' E 139°25'3 8.5
2018-May-18 10:29N 35°01' E 139°29'4 8.1
2018-May-18 10:00N 35°03' E 139°33'5 8.8
2018-May-18 09:30N 35°05' E 139°38'5 9.5
2018-May-18 09:00N 35°08' E 139°42'5 9.3
2018-May-18 08:30N 35°12' E 139°46'4 8.7
2018-May-18 08:00N 35°16' E 139°46'5 9.7
2018-May-18 07:31N 35°20' E 139°42'5 9.8
2018-May-18 07:01N 35°25' E 139°43'  

Dump ship's entire track history